sensor_id;sensor_type;location;lat;lon;timestamp;P1;durP1;ratioP1;P2;durP2;ratioP2
51298;SDS011;37382;45.192;9.790;2022-07-23T07:16:31;15.30;;;9.88;;
51298;SDS011;37382;45.192;9.790;2022-07-23T07:18:59;22.60;;;9.35;;
51298;SDS011;37382;45.192;9.790;2022-07-23T07:21:27;21.33;;;8.27;;
51298;SDS011;37382;45.192;9.790;2022-07-23T07:23:54;15.10;;;9.65;;
51298;SDS011;37382;45.192;9.790;2022-07-23T07:26:22;22.08;;;9.43;;
51298;SDS011;37382;45.192;9.790;2022-07-23T07:28:50;17.73;;;9.80;;
51298;SDS011;37382;45.192;9.790;2022-07-23T07:31:17;18.00;;;10.07;;
51298;SDS011;37382;45.192;9.790;2022-07-23T07:33:45;12.45;;;8.98;;
51298;SDS011;37382;45.192;9.790;2022-07-23T07:36:13;26.70;;;9.45;;
51298;SDS011;37382;45.192;9.790;2022-07-23T07:38:45;22.65;;;9.65;;
51298;SDS011;37382;45.192;9.790;2022-07-23T07:41:12;16.75;;;9.30;;
51298;SDS011;37382;45.192;9.790;2022-07-23T07:43:40;18.17;;;9.75;;
51298;SDS011;37382;45.192;9.790;2022-07-23T07:46:08;19.85;;;9.85;;
51298;SDS011;37382;45.192;9.790;2022-07-23T07:48:37;20.52;;;9.20;;
51298;SDS011;37382;45.192;9.790;2022-07-23T07:51:05;17.17;;;9.23;;
51298;SDS011;37382;45.192;9.790;2022-07-23T07:53:32;15.40;;;8.50;;
51298;SDS011;37382;45.192;9.790;2022-07-23T07:56:00;20.85;;;8.52;;
51298;SDS011;37382;45.192;9.790;2022-07-23T07:58:27;14.20;;;8.48;;
51298;SDS011;37382;45.192;9.790;2022-07-23T08:00:56;17.45;;;8.43;;
51298;SDS011;37382;45.192;9.790;2022-07-23T08:03:24;16.67;;;8.90;;
51298;SDS011;37382;45.192;9.790;2022-07-23T08:05:51;46.85;;;10.38;;
51298;SDS011;37382;45.192;9.790;2022-07-23T08:08:19;17.25;;;8.82;;
51298;SDS011;37382;45.192;9.790;2022-07-23T08:10:47;15.52;;;8.48;;
51298;SDS011;37382;45.192;9.790;2022-07-23T08:13:15;22.42;;;8.20;;
51298;SDS011;37382;45.192;9.790;2022-07-23T08:15:43;17.55;;;8.20;;
51298;SDS011;37382;45.192;9.790;2022-07-23T08:18:13;25.58;;;7.97;;
51298;SDS011;37382;45.192;9.790;2022-07-23T08:20:40;14.43;;;8.60;;
51298;SDS011;37382;45.192;9.790;2022-07-23T08:23:08;21.33;;;8.80;;
51298;SDS011;37382;45.192;9.790;2022-07-23T08:25:37;22.75;;;8.43;;
51298;SDS011;37382;45.192;9.790;2022-07-23T08:33:07;12.95;;;7.38;;
51298;SDS011;37382;45.192;9.790;2022-07-23T08:36:00;21.38;;;8.55;;
51298;SDS011;37382;45.192;9.790;2022-07-23T08:38:30;29.52;;;8.57;;
51298;SDS011;37382;45.192;9.790;2022-07-23T08:40:59;20.48;;;7.80;;
51298;SDS011;37382;45.192;9.790;2022-07-23T08:43:28;13.40;;;7.95;;
51298;SDS011;37382;45.192;9.790;2022-07-23T08:45:58;19.30;;;8.75;;
51298;SDS011;37382;45.192;9.790;2022-07-23T08:48:31;22.80;;;8.98;;
51298;SDS011;37382;45.192;9.790;2022-07-23T08:51:01;18.55;;;7.93;;
51298;SDS011;37382;45.192;9.790;2022-07-23T08:53:31;18.60;;;8.25;;
51298;SDS011;37382;45.192;9.790;2022-07-23T08:56:01;15.43;;;8.13;;
51298;SDS011;37382;45.192;9.790;2022-07-23T08:58:30;20.73;;;8.20;;
51298;SDS011;37382;45.192;9.790;2022-07-23T09:00:59;16.98;;;8.10;;
51298;SDS011;37382;45.192;9.790;2022-07-23T09:03:28;13.95;;;7.97;;
51298;SDS011;37382;45.192;9.790;2022-07-23T09:05:58;15.85;;;8.07;;
51298;SDS011;37382;45.192;9.790;2022-07-23T09:11:10;14.90;;;7.32;;
51298;SDS011;37382;45.192;9.790;2022-07-23T09:16:29;12.15;;;7.25;;
51298;SDS011;37382;45.192;9.790;2022-07-23T09:18:59;20.88;;;8.00;;
51298;SDS011;37382;45.192;9.790;2022-07-23T09:21:28;16.30;;;7.75;;
51298;SDS011;37382;45.192;9.790;2022-07-23T09:31:59;18.33;;;7.22;;
51298;SDS011;37382;45.192;9.790;2022-07-23T09:34:33;14.23;;;7.43;;
51298;SDS011;37382;45.192;9.790;2022-07-23T09:37:15;11.90;;;7.28;;
51298;SDS011;37382;45.192;9.790;2022-07-23T09:39:45;17.15;;;6.93;;
51298;SDS011;37382;45.192;9.790;2022-07-23T09:42:18;21.77;;;7.47;;
51298;SDS011;37382;45.192;9.790;2022-07-23T09:44:48;15.30;;;7.32;;
51298;SDS011;37382;45.192;9.790;2022-07-23T09:47:17;22.52;;;7.10;;
51298;SDS011;37382;45.192;9.790;2022-07-23T09:55:10;11.65;;;7.22;;
51298;SDS011;37382;45.192;9.790;2022-07-23T09:57:38;14.77;;;7.25;;
51298;SDS011;37382;45.192;9.790;2022-07-23T10:00:08;25.90;;;8.37;;
51298;SDS011;37382;45.192;9.790;2022-07-23T10:02:38;20.02;;;7.45;;
51298;SDS011;37382;45.192;9.790;2022-07-23T10:05:25;18.60;;;7.82;;
51298;SDS011;37382;45.192;9.790;2022-07-23T10:08:17;11.68;;;6.72;;
51298;SDS011;37382;45.192;9.790;2022-07-23T10:11:05;10.55;;;6.78;;
51298;SDS011;37382;45.192;9.790;2022-07-23T10:13:47;11.27;;;6.72;;
51298;SDS011;37382;45.192;9.790;2022-07-23T10:16:16;12.32;;;6.55;;
51298;SDS011;37382;45.192;9.790;2022-07-23T10:18:54;15.88;;;6.65;;
51298;SDS011;37382;45.192;9.790;2022-07-23T10:21:42;22.50;;;6.80;;
51298;SDS011;37382;45.192;9.790;2022-07-23T10:32:44;14.00;;;6.30;;
51298;SDS011;37382;45.192;9.790;2022-07-23T10:35:23;15.02;;;6.35;;
51298;SDS011;37382;45.192;9.790;2022-07-23T10:37:59;15.00;;;6.43;;
51298;SDS011;37382;45.192;9.790;2022-07-23T10:40:37;17.20;;;6.50;;
51298;SDS011;37382;45.192;9.790;2022-07-23T10:43:21;15.07;;;6.72;;
51298;SDS011;37382;45.192;9.790;2022-07-23T10:45:49;14.85;;;7.15;;
51298;SDS011;37382;45.192;9.790;2022-07-23T10:48:17;17.90;;;7.00;;
51298;SDS011;37382;45.192;9.790;2022-07-23T10:56:17;18.27;;;6.90;;
51298;SDS011;37382;45.192;9.790;2022-07-23T10:59:23;18.90;;;7.97;;
51298;SDS011;37382;45.192;9.790;2022-07-23T11:01:50;11.20;;;6.45;;
51298;SDS011;37382;45.192;9.790;2022-07-23T11:04:19;15.18;;;6.57;;
51298;SDS011;37382;45.192;9.790;2022-07-23T11:09:27;18.95;;;6.82;;
51298;SDS011;37382;45.192;9.790;2022-07-23T11:25:13;11.55;;;6.18;;
51298;SDS011;37382;45.192;9.790;2022-07-23T11:28:08;8.10;;;5.72;;
51298;SDS011;37382;45.192;9.790;2022-07-23T11:30:44;14.50;;;5.88;;
51298;SDS011;37382;45.192;9.790;2022-07-23T11:35:43;13.45;;;6.20;;
51298;SDS011;37382;45.192;9.790;2022-07-23T11:38:14;13.38;;;6.05;;
51298;SDS011;37382;45.192;9.790;2022-07-23T11:40:44;13.73;;;6.20;;
51298;SDS011;37382;45.192;9.790;2022-07-23T11:43:17;13.45;;;6.25;;
51298;SDS011;37382;45.192;9.790;2022-07-23T11:45:46;6.90;;;5.30;;
51298;SDS011;37382;45.192;9.790;2022-07-23T11:48:23;12.00;;;5.75;;
51298;SDS011;37382;45.192;9.790;2022-07-23T11:50:55;10.40;;;6.13;;
51298;SDS011;37382;45.192;9.790;2022-07-23T11:56:08;11.18;;;5.60;;
51298;SDS011;37382;45.192;9.790;2022-07-23T11:58:37;10.10;;;5.55;;
51298;SDS011;37382;45.192;9.790;2022-07-23T12:01:06;8.63;;;5.68;;
51298;SDS011;37382;45.192;9.790;2022-07-23T12:03:51;10.40;;;5.78;;
51298;SDS011;37382;45.192;9.790;2022-07-23T12:06:19;8.65;;;5.80;;
51298;SDS011;37382;45.192;9.790;2022-07-23T12:08:47;9.52;;;5.55;;
51298;SDS011;37382;45.192;9.790;2022-07-23T12:11:15;11.93;;;5.70;;
51298;SDS011;37382;45.192;9.790;2022-07-23T12:13:42;9.48;;;5.72;;
51298;SDS011;37382;45.192;9.790;2022-07-23T12:16:10;14.93;;;5.95;;
51298;SDS011;37382;45.192;9.790;2022-07-23T12:18:38;12.95;;;6.00;;
51298;SDS011;37382;45.192;9.790;2022-07-23T12:21:05;12.07;;;5.60;;
51298;SDS011;37382;45.192;9.790;2022-07-23T12:23:34;12.70;;;5.50;;
51298;SDS011;37382;45.192;9.790;2022-07-23T12:26:05;12.18;;;5.50;;
51298;SDS011;37382;45.192;9.790;2022-07-23T12:28:34;18.83;;;5.60;;
51298;SDS011;37382;45.192;9.790;2022-07-23T12:33:33;10.52;;;5.53;;
51298;SDS011;37382;45.192;9.790;2022-07-23T12:36:03;12.05;;;5.80;;
51298;SDS011;37382;45.192;9.790;2022-07-23T12:38:36;20.83;;;6.00;;
51298;SDS011;37382;45.192;9.790;2022-07-23T12:41:07;17.35;;;5.80;;
51298;SDS011;37382;45.192;9.790;2022-07-23T12:43:42;9.18;;;5.75;;
51298;SDS011;37382;45.192;9.790;2022-07-23T12:46:13;9.70;;;5.30;;
51298;SDS011;37382;45.192;9.790;2022-07-23T12:53:58;16.17;;;6.10;;
51298;SDS011;37382;45.192;9.790;2022-07-23T12:56:32;20.70;;;5.45;;
51298;SDS011;37382;45.192;9.790;2022-07-23T12:59:08;8.13;;;5.47;;
51298;SDS011;37382;45.192;9.790;2022-07-23T13:01:39;10.60;;;5.15;;
51298;SDS011;37382;45.192;9.790;2022-07-23T13:04:11;11.27;;;5.47;;
51298;SDS011;37382;45.192;9.790;2022-07-23T13:09:12;11.23;;;5.80;;
51298;SDS011;37382;45.192;9.790;2022-07-23T13:11:43;16.42;;;5.88;;
51298;SDS011;37382;45.192;9.790;2022-07-23T13:14:14;18.60;;;5.88;;
51298;SDS011;37382;45.192;9.790;2022-07-23T13:16:43;8.20;;;5.28;;
51298;SDS011;37382;45.192;9.790;2022-07-23T13:19:12;18.15;;;5.78;;
51298;SDS011;37382;45.192;9.790;2022-07-23T13:21:41;11.48;;;5.55;;
51298;SDS011;37382;45.192;9.790;2022-07-23T13:24:11;12.75;;;5.93;;
51298;SDS011;37382;45.192;9.790;2022-07-23T13:26:39;22.17;;;6.00;;
51298;SDS011;37382;45.192;9.790;2022-07-23T13:29:08;10.68;;;5.28;;
51298;SDS011;37382;45.192;9.790;2022-07-23T13:31:37;12.77;;;5.53;;
51298;SDS011;37382;45.192;9.790;2022-07-23T13:34:06;11.43;;;5.30;;
51298;SDS011;37382;45.192;9.790;2022-07-23T13:36:35;11.85;;;5.50;;
51298;SDS011;37382;45.192;9.790;2022-07-23T13:39:03;11.05;;;5.40;;
51298;SDS011;37382;45.192;9.790;2022-07-23T13:41:34;11.32;;;5.78;;
51298;SDS011;37382;45.192;9.790;2022-07-23T13:44:02;11.20;;;5.90;;
51298;SDS011;37382;45.192;9.790;2022-07-23T13:46:30;7.72;;;5.35;;
51298;SDS011;37382;45.192;9.790;2022-07-23T13:48:58;15.68;;;5.72;;
51298;SDS011;37382;45.192;9.790;2022-07-23T13:51:26;13.70;;;5.68;;
51298;SDS011;37382;45.192;9.790;2022-07-23T13:53:55;10.23;;;5.68;;
51298;SDS011;37382;45.192;9.790;2022-07-23T13:56:24;11.40;;;5.72;;
51298;SDS011;37382;45.192;9.790;2022-07-23T13:58:51;15.68;;;6.22;;
51298;SDS011;37382;45.192;9.790;2022-07-23T14:01:20;11.57;;;5.22;;
51298;SDS011;37382;45.192;9.790;2022-07-23T14:03:47;19.15;;;5.57;;
51298;SDS011;37382;45.192;9.790;2022-07-23T14:06:15;12.80;;;5.25;;
51298;SDS011;37382;45.192;9.790;2022-07-23T14:08:43;12.38;;;5.57;;
51298;SDS011;37382;45.192;9.790;2022-07-23T14:11:11;21.90;;;6.18;;
51298;SDS011;37382;45.192;9.790;2022-07-23T14:13:39;12.00;;;5.63;;
51298;SDS011;37382;45.192;9.790;2022-07-23T14:16:07;12.65;;;5.68;;
51298;SDS011;37382;45.192;9.790;2022-07-23T14:18:35;12.50;;;5.30;;
51298;SDS011;37382;45.192;9.790;2022-07-23T14:21:04;16.95;;;5.72;;
51298;SDS011;37382;45.192;9.790;2022-07-23T14:23:33;12.15;;;5.40;;
51298;SDS011;37382;45.192;9.790;2022-07-23T14:26:01;9.35;;;5.43;;
51298;SDS011;37382;45.192;9.790;2022-07-23T14:28:32;11.68;;;5.82;;
51298;SDS011;37382;45.192;9.790;2022-07-23T14:31:02;16.73;;;6.00;;
51298;SDS011;37382;45.192;9.790;2022-07-23T14:33:30;13.35;;;5.65;;
51298;SDS011;37382;45.192;9.790;2022-07-23T14:35:57;13.18;;;6.38;;
51298;SDS011;37382;45.192;9.790;2022-07-23T14:38:27;19.67;;;5.70;;
51298;SDS011;37382;45.192;9.790;2022-07-23T14:40:55;14.15;;;5.75;;
51298;SDS011;37382;45.192;9.790;2022-07-23T14:43:23;11.82;;;5.95;;
51298;SDS011;37382;45.192;9.790;2022-07-23T14:45:50;14.18;;;6.30;;
51298;SDS011;37382;45.192;9.790;2022-07-23T14:48:19;11.35;;;6.47;;
51298;SDS011;37382;45.192;9.790;2022-07-23T14:50:47;12.75;;;6.22;;
51298;SDS011;37382;45.192;9.790;2022-07-23T14:53:15;13.80;;;6.07;;
51298;SDS011;37382;45.192;9.790;2022-07-23T14:55:48;15.25;;;6.60;;
51298;SDS011;37382;45.192;9.790;2022-07-23T14:58:16;8.55;;;6.10;;
51298;SDS011;37382;45.192;9.790;2022-07-23T15:00:44;15.57;;;6.15;;
51298;SDS011;37382;45.192;9.790;2022-07-23T15:03:12;15.00;;;5.97;;
51298;SDS011;37382;45.192;9.790;2022-07-23T15:05:42;13.70;;;5.47;;
51298;SDS011;37382;45.192;9.790;2022-07-23T15:08:09;10.40;;;5.75;;
51298;SDS011;37382;45.192;9.790;2022-07-23T15:10:37;9.68;;;5.75;;
51298;SDS011;37382;45.192;9.790;2022-07-23T15:13:04;15.07;;;5.78;;
51298;SDS011;37382;45.192;9.790;2022-07-23T15:15:34;13.77;;;5.95;;
51298;SDS011;37382;45.192;9.790;2022-07-23T15:18:02;10.48;;;5.53;;
51298;SDS011;37382;45.192;9.790;2022-07-23T15:20:29;10.90;;;5.15;;
51298;SDS011;37382;45.192;9.790;2022-07-23T15:23:04;8.02;;;5.55;;
51298;SDS011;37382;45.192;9.790;2022-07-23T15:25:53;15.00;;;5.35;;
51298;SDS011;37382;45.192;9.790;2022-07-23T15:28:24;7.97;;;5.20;;
51298;SDS011;37382;45.192;9.790;2022-07-23T15:30:52;12.80;;;5.18;;
51298;SDS011;37382;45.192;9.790;2022-07-23T15:33:20;13.05;;;5.35;;
51298;SDS011;37382;45.192;9.790;2022-07-23T15:35:48;20.02;;;5.60;;
51298;SDS011;37382;45.192;9.790;2022-07-23T15:38:16;12.95;;;4.90;;
51298;SDS011;37382;45.192;9.790;2022-07-23T15:40:53;12.77;;;5.07;;
51298;SDS011;37382;45.192;9.790;2022-07-23T15:43:24;11.88;;;5.68;;
51298;SDS011;37382;45.192;9.790;2022-07-23T15:45:52;11.77;;;5.43;;
51298;SDS011;37382;45.192;9.790;2022-07-23T15:48:20;9.30;;;5.13;;
51298;SDS011;37382;45.192;9.790;2022-07-23T15:50:49;10.88;;;5.88;;
51298;SDS011;37382;45.192;9.790;2022-07-23T15:53:17;13.13;;;5.72;;
51298;SDS011;37382;45.192;9.790;2022-07-23T15:56:02;12.73;;;5.75;;
51298;SDS011;37382;45.192;9.790;2022-07-23T15:58:32;15.63;;;5.78;;
51298;SDS011;37382;45.192;9.790;2022-07-23T16:01:00;17.95;;;5.70;;
51298;SDS011;37382;45.192;9.790;2022-07-23T16:03:30;12.77;;;5.32;;
51298;SDS011;37382;45.192;9.790;2022-07-23T16:05:59;17.50;;;5.20;;
51298;SDS011;37382;45.192;9.790;2022-07-23T16:08:27;12.10;;;5.28;;
51298;SDS011;37382;45.192;9.790;2022-07-23T16:10:54;9.70;;;4.85;;
51298;SDS011;37382;45.192;9.790;2022-07-23T16:13:25;17.05;;;5.28;;
51298;SDS011;37382;45.192;9.790;2022-07-23T16:15:53;13.80;;;4.97;;
51298;SDS011;37382;45.192;9.790;2022-07-23T16:18:21;12.32;;;4.78;;
51298;SDS011;37382;45.192;9.790;2022-07-23T16:20:52;13.60;;;5.25;;
51298;SDS011;37382;45.192;9.790;2022-07-23T16:23:20;8.48;;;4.57;;
51298;SDS011;37382;45.192;9.790;2022-07-23T16:25:48;16.65;;;4.93;;
51298;SDS011;37382;45.192;9.790;2022-07-23T16:28:16;11.10;;;4.88;;
51298;SDS011;37382;45.192;9.790;2022-07-23T16:30:43;13.23;;;4.60;;
51298;SDS011;37382;45.192;9.790;2022-07-23T16:33:11;11.85;;;5.07;;
51298;SDS011;37382;45.192;9.790;2022-07-23T16:35:38;13.93;;;6.05;;
51298;SDS011;37382;45.192;9.790;2022-07-23T16:38:06;10.52;;;5.45;;
51298;SDS011;37382;45.192;9.790;2022-07-23T16:40:34;11.15;;;6.22;;
51298;SDS011;37382;45.192;9.790;2022-07-23T16:43:01;11.85;;;5.70;;
51298;SDS011;37382;45.192;9.790;2022-07-23T16:45:29;15.35;;;6.25;;
51298;SDS011;37382;45.192;9.790;2022-07-23T16:47:57;15.25;;;6.47;;
51298;SDS011;37382;45.192;9.790;2022-07-23T16:50:25;16.80;;;6.28;;
51298;SDS011;37382;45.192;9.790;2022-07-23T16:52:53;9.52;;;5.90;;
51298;SDS011;37382;45.192;9.790;2022-07-23T16:55:20;13.73;;;6.40;;
51298;SDS011;37382;45.192;9.790;2022-07-23T16:57:48;21.20;;;6.57;;
51298;SDS011;37382;45.192;9.790;2022-07-23T17:00:15;14.80;;;6.45;;
51298;SDS011;37382;45.192;9.790;2022-07-23T17:02:43;20.13;;;6.15;;
51298;SDS011;37382;45.192;9.790;2022-07-23T17:05:11;17.98;;;6.30;;
51298;SDS011;37382;45.192;9.790;2022-07-23T17:07:38;16.77;;;6.72;;
51298;SDS011;37382;45.192;9.790;2022-07-23T17:10:07;17.80;;;7.25;;
51298;SDS011;37382;45.192;9.790;2022-07-23T17:12:37;14.07;;;6.97;;
51298;SDS011;37382;45.192;9.790;2022-07-23T17:15:05;14.02;;;6.78;;
51298;SDS011;37382;45.192;9.790;2022-07-23T17:17:33;12.35;;;6.15;;
51298;SDS011;37382;45.192;9.790;2022-07-23T17:20:03;20.38;;;7.00;;
51298;SDS011;37382;45.192;9.790;2022-07-23T17:22:33;14.20;;;6.55;;
51298;SDS011;37382;45.192;9.790;2022-07-23T17:25:01;14.50;;;7.18;;
51298;SDS011;37382;45.192;9.790;2022-07-23T17:27:29;15.73;;;6.80;;
51298;SDS011;37382;45.192;9.790;2022-07-23T17:29:58;17.88;;;6.45;;
51298;SDS011;37382;45.192;9.790;2022-07-23T17:32:25;12.45;;;6.60;;
51298;SDS011;37382;45.192;9.790;2022-07-23T17:34:53;14.18;;;7.05;;
51298;SDS011;37382;45.192;9.790;2022-07-23T17:37:20;20.45;;;7.25;;
51298;SDS011;37382;45.192;9.790;2022-07-23T17:39:48;13.18;;;6.72;;
51298;SDS011;37382;45.192;9.790;2022-07-23T17:42:17;20.95;;;7.22;;
51298;SDS011;37382;45.192;9.790;2022-07-23T17:44:45;12.27;;;6.30;;
51298;SDS011;37382;45.192;9.790;2022-07-23T17:47:13;17.42;;;6.90;;
51298;SDS011;37382;45.192;9.790;2022-07-23T17:49:40;16.15;;;6.88;;
51298;SDS011;37382;45.192;9.790;2022-07-23T17:52:08;24.13;;;7.32;;
51298;SDS011;37382;45.192;9.790;2022-07-23T17:54:35;13.10;;;6.50;;
51298;SDS011;37382;45.192;9.790;2022-07-23T17:57:03;18.05;;;6.05;;
51298;SDS011;37382;45.192;9.790;2022-07-23T17:59:33;17.58;;;6.22;;
51298;SDS011;37382;45.192;9.790;2022-07-23T18:02:01;16.33;;;6.15;;
51298;SDS011;37382;45.192;9.790;2022-07-23T18:04:28;12.15;;;6.00;;
51298;SDS011;37382;45.192;9.790;2022-07-23T18:06:56;10.27;;;5.80;;
51298;SDS011;37382;45.192;9.790;2022-07-23T18:09:23;16.48;;;6.15;;
51298;SDS011;37382;45.192;9.790;2022-07-23T18:11:51;25.52;;;5.88;;
51298;SDS011;37382;45.192;9.790;2022-07-23T18:14:18;15.93;;;5.78;;
51298;SDS011;37382;45.192;9.790;2022-07-23T18:16:46;18.17;;;6.30;;
51298;SDS011;37382;45.192;9.790;2022-07-23T18:19:13;24.48;;;6.43;;
51298;SDS011;37382;45.192;9.790;2022-07-23T18:21:41;19.25;;;5.43;;
51298;SDS011;37382;45.192;9.790;2022-07-23T18:24:08;16.95;;;5.82;;
51298;SDS011;37382;45.192;9.790;2022-07-23T18:26:36;16.08;;;5.57;;
51298;SDS011;37382;45.192;9.790;2022-07-23T18:29:03;15.00;;;6.03;;
51298;SDS011;37382;45.192;9.790;2022-07-23T18:31:31;12.55;;;5.45;;
51298;SDS011;37382;45.192;9.790;2022-07-23T18:33:59;12.82;;;5.88;;
51298;SDS011;37382;45.192;9.790;2022-07-23T18:36:26;13.23;;;5.68;;
51298;SDS011;37382;45.192;9.790;2022-07-23T18:38:56;15.93;;;5.85;;
51298;SDS011;37382;45.192;9.790;2022-07-23T18:41:30;10.50;;;5.47;;
51298;SDS011;37382;45.192;9.790;2022-07-23T18:44:02;17.35;;;6.03;;
51298;SDS011;37382;45.192;9.790;2022-07-23T18:46:29;13.52;;;5.80;;
51298;SDS011;37382;45.192;9.790;2022-07-23T18:48:57;16.05;;;5.65;;
51298;SDS011;37382;45.192;9.790;2022-07-23T18:51:25;12.15;;;5.72;;
51298;SDS011;37382;45.192;9.790;2022-07-23T18:53:53;16.58;;;5.95;;
51298;SDS011;37382;45.192;9.790;2022-07-23T18:56:21;21.70;;;5.57;;
51298;SDS011;37382;45.192;9.790;2022-07-23T18:58:48;16.98;;;5.28;;
51298;SDS011;37382;45.192;9.790;2022-07-23T19:01:16;13.25;;;5.53;;
51298;SDS011;37382;45.192;9.790;2022-07-23T19:03:44;11.65;;;5.95;;
51298;SDS011;37382;45.192;9.790;2022-07-23T19:06:11;14.45;;;5.88;;
51298;SDS011;37382;45.192;9.790;2022-07-23T19:08:39;11.82;;;5.45;;
51298;SDS011;37382;45.192;9.790;2022-07-23T19:11:08;15.15;;;5.53;;
51298;SDS011;37382;45.192;9.790;2022-07-23T19:13:35;16.17;;;5.80;;
51298;SDS011;37382;45.192;9.790;2022-07-23T19:16:04;13.75;;;5.70;;
51298;SDS011;37382;45.192;9.790;2022-07-23T19:18:32;20.15;;;6.28;;
51298;SDS011;37382;45.192;9.790;2022-07-23T19:21:00;14.38;;;6.18;;
51298;SDS011;37382;45.192;9.790;2022-07-23T19:23:28;14.35;;;5.32;;
51298;SDS011;37382;45.192;9.790;2022-07-23T19:25:55;15.40;;;5.78;;
51298;SDS011;37382;45.192;9.790;2022-07-23T19:28:23;17.95;;;5.93;;
51298;SDS011;37382;45.192;9.790;2022-07-23T19:30:50;10.90;;;5.55;;
51298;SDS011;37382;45.192;9.790;2022-07-23T19:33:18;16.05;;;5.88;;
51298;SDS011;37382;45.192;9.790;2022-07-23T19:35:45;17.67;;;6.50;;
51298;SDS011;37382;45.192;9.790;2022-07-23T19:38:15;20.92;;;6.10;;
51298;SDS011;37382;45.192;9.790;2022-07-23T19:40:43;16.55;;;6.00;;
51298;SDS011;37382;45.192;9.790;2022-07-23T19:43:10;12.13;;;5.50;;
51298;SDS011;37382;45.192;9.790;2022-07-23T19:45:38;18.02;;;5.95;;
51298;SDS011;37382;45.192;9.790;2022-07-23T19:48:08;12.97;;;6.43;;
51298;SDS011;37382;45.192;9.790;2022-07-23T19:50:35;16.08;;;6.40;;
51298;SDS011;37382;45.192;9.790;2022-07-23T19:53:03;13.00;;;6.00;;
51298;SDS011;37382;45.192;9.790;2022-07-23T19:55:31;21.50;;;6.18;;
51298;SDS011;37382;45.192;9.790;2022-07-23T19:57:58;12.75;;;6.18;;
51298;SDS011;37382;45.192;9.790;2022-07-23T20:00:26;17.05;;;5.57;;
51298;SDS011;37382;45.192;9.790;2022-07-23T20:02:54;19.77;;;5.65;;
51298;SDS011;37382;45.192;9.790;2022-07-23T20:05:22;13.30;;;5.60;;
51298;SDS011;37382;45.192;9.790;2022-07-23T20:07:50;12.45;;;5.20;;
51298;SDS011;37382;45.192;9.790;2022-07-23T20:10:18;15.15;;;5.95;;
51298;SDS011;37382;45.192;9.790;2022-07-23T20:12:45;16.88;;;5.88;;
51298;SDS011;37382;45.192;9.790;2022-07-23T20:15:13;12.43;;;5.53;;
51298;SDS011;37382;45.192;9.790;2022-07-23T20:17:41;10.55;;;5.28;;
51298;SDS011;37382;45.192;9.790;2022-07-23T20:20:08;10.35;;;5.63;;
51298;SDS011;37382;45.192;9.790;2022-07-23T20:22:36;12.65;;;5.28;;
51298;SDS011;37382;45.192;9.790;2022-07-23T20:25:04;15.32;;;5.78;;
51298;SDS011;37382;45.192;9.790;2022-07-23T20:27:33;18.10;;;5.68;;
51298;SDS011;37382;45.192;9.790;2022-07-23T20:30:01;10.48;;;5.25;;
51298;SDS011;37382;45.192;9.790;2022-07-23T20:32:31;8.88;;;5.50;;
51298;SDS011;37382;45.192;9.790;2022-07-23T20:34:59;13.50;;;5.65;;
51298;SDS011;37382;45.192;9.790;2022-07-23T20:37:26;13.55;;;5.60;;
51298;SDS011;37382;45.192;9.790;2022-07-23T20:39:54;18.80;;;6.18;;
51298;SDS011;37382;45.192;9.790;2022-07-23T20:42:21;16.60;;;5.25;;
51298;SDS011;37382;45.192;9.790;2022-07-23T20:44:49;16.80;;;6.47;;
51298;SDS011;37382;45.192;9.790;2022-07-23T20:47:17;18.63;;;5.53;;
51298;SDS011;37382;45.192;9.790;2022-07-23T20:49:45;19.13;;;5.80;;
51298;SDS011;37382;45.192;9.790;2022-07-23T20:52:13;9.90;;;5.60;;
51298;SDS011;37382;45.192;9.790;2022-07-23T20:54:48;12.68;;;5.38;;
51298;SDS011;37382;45.192;9.790;2022-07-23T20:57:16;9.75;;;5.20;;
51298;SDS011;37382;45.192;9.790;2022-07-23T20:59:44;11.77;;;5.60;;
51298;SDS011;37382;45.192;9.790;2022-07-23T21:02:11;10.40;;;5.47;;
51298;SDS011;37382;45.192;9.790;2022-07-23T21:04:39;12.07;;;5.25;;
51298;SDS011;37382;45.192;9.790;2022-07-23T21:07:12;12.07;;;5.22;;
51298;SDS011;37382;45.192;9.790;2022-07-23T21:09:44;15.90;;;4.88;;
51298;SDS011;37382;45.192;9.790;2022-07-23T21:12:13;13.48;;;4.78;;
51298;SDS011;37382;45.192;9.790;2022-07-23T21:14:42;12.90;;;4.85;;
51298;SDS011;37382;45.192;9.790;2022-07-23T21:17:11;12.38;;;5.30;;
51298;SDS011;37382;45.192;9.790;2022-07-23T21:19:39;9.63;;;4.90;;
51298;SDS011;37382;45.192;9.790;2022-07-23T21:22:06;13.40;;;5.15;;
51298;SDS011;37382;45.192;9.790;2022-07-23T21:24:37;8.82;;;4.68;;
51298;SDS011;37382;45.192;9.790;2022-07-23T21:27:04;11.57;;;5.30;;
51298;SDS011;37382;45.192;9.790;2022-07-23T21:29:34;13.45;;;5.43;;
51298;SDS011;37382;45.192;9.790;2022-07-23T21:32:03;14.30;;;4.97;;
51298;SDS011;37382;45.192;9.790;2022-07-23T21:34:31;13.10;;;4.93;;
51298;SDS011;37382;45.192;9.790;2022-07-23T21:36:59;13.25;;;5.43;;
51298;SDS011;37382;45.192;9.790;2022-07-23T21:39:26;13.23;;;5.53;;
51298;SDS011;37382;45.192;9.790;2022-07-23T21:41:54;15.13;;;4.85;;
51298;SDS011;37382;45.192;9.790;2022-07-23T21:44:21;13.60;;;4.63;;
51298;SDS011;37382;45.192;9.790;2022-07-23T21:46:49;12.60;;;5.03;;
51298;SDS011;37382;45.192;9.790;2022-07-23T21:49:17;14.25;;;4.78;;
51298;SDS011;37382;45.192;9.790;2022-07-23T21:51:45;14.18;;;4.85;;
51298;SDS011;37382;45.192;9.790;2022-07-23T21:54:12;9.93;;;5.45;;
51298;SDS011;37382;45.192;9.790;2022-07-23T21:56:43;16.48;;;5.03;;
51298;SDS011;37382;45.192;9.790;2022-07-23T21:59:11;14.73;;;5.25;;
51298;SDS011;37382;45.192;9.790;2022-07-23T22:01:38;10.57;;;5.00;;
51298;SDS011;37382;45.192;9.790;2022-07-23T22:04:06;13.05;;;4.43;;
51298;SDS011;37382;45.192;9.790;2022-07-23T22:06:33;7.47;;;4.78;;
51298;SDS011;37382;45.192;9.790;2022-07-23T22:09:01;15.70;;;5.38;;
51298;SDS011;37382;45.192;9.790;2022-07-23T22:11:29;12.02;;;5.80;;
51298;SDS011;37382;45.192;9.790;2022-07-23T22:13:57;10.70;;;5.18;;
51298;SDS011;37382;45.192;9.790;2022-07-23T22:16:24;10.25;;;5.00;;
51298;SDS011;37382;45.192;9.790;2022-07-23T22:18:52;13.88;;;5.50;;
51298;SDS011;37382;45.192;9.790;2022-07-23T22:21:19;12.82;;;5.18;;
51298;SDS011;37382;45.192;9.790;2022-07-23T22:24:07;14.95;;;5.30;;
51298;SDS011;37382;45.192;9.790;2022-07-23T22:26:35;11.23;;;5.10;;
51298;SDS011;37382;45.192;9.790;2022-07-23T22:29:02;11.55;;;4.75;;
51298;SDS011;37382;45.192;9.790;2022-07-23T22:31:30;9.77;;;5.63;;
51298;SDS011;37382;45.192;9.790;2022-07-23T22:33:58;13.52;;;5.45;;
51298;SDS011;37382;45.192;9.790;2022-07-23T22:36:26;11.60;;;5.70;;
51298;SDS011;37382;45.192;9.790;2022-07-23T22:38:53;12.50;;;5.80;;
51298;SDS011;37382;45.192;9.790;2022-07-23T22:41:21;9.93;;;5.63;;
51298;SDS011;37382;45.192;9.790;2022-07-23T22:43:49;10.20;;;5.53;;
51298;SDS011;37382;45.192;9.790;2022-07-23T22:46:16;11.48;;;5.70;;
51298;SDS011;37382;45.192;9.790;2022-07-23T22:48:44;14.40;;;5.35;;
51298;SDS011;37382;45.192;9.790;2022-07-23T22:51:12;13.55;;;5.57;;
51298;SDS011;37382;45.192;9.790;2022-07-23T22:53:45;19.13;;;6.38;;
51298;SDS011;37382;45.192;9.790;2022-07-23T22:56:13;12.18;;;6.00;;
51298;SDS011;37382;45.192;9.790;2022-07-23T22:58:41;18.65;;;6.57;;
51298;SDS011;37382;45.192;9.790;2022-07-23T23:01:08;13.43;;;6.07;;
51298;SDS011;37382;45.192;9.790;2022-07-23T23:03:37;18.88;;;6.70;;
51298;SDS011;37382;45.192;9.790;2022-07-23T23:06:04;26.33;;;6.55;;
51298;SDS011;37382;45.192;9.790;2022-07-23T23:08:32;13.73;;;7.22;;
51298;SDS011;37382;45.192;9.790;2022-07-23T23:11:00;16.80;;;6.57;;
51298;SDS011;37382;45.192;9.790;2022-07-23T23:13:27;14.90;;;6.45;;